This is the latest recevied weather packets stored in our database for station/object K5NWZ. If no packets are shown the sender has not sent any weather packets the latest 10 day(s).
| Time | Temp. | Humidity | Pressure | Rain* | Wind** | Luminosity | Snow |
|---|---|---|---|---|---|---|---|
| 1778153338 | 3.89° C | 63% | 1023.8 hPa | 0 mm | - | 0 W/m² | - |
| 1778153035 | 3.89° C | 70% | 1023.5 hPa | 0 mm | - | 0 W/m² | - |
| 1778152732 | 6.11° C | 63% | 1023.4 hPa | 0 mm | - | 0 W/m² | - |
| 1778152429 | 6.11° C | 56% | 1023.5 hPa | 0 mm | - | 0 W/m² | - |
| 1778152125 | 4.44° C | 65% | 1023.4 hPa | 0 mm | - | 0 W/m² | - |
| 1778151821 | 3.89° C | 72% | 1023.5 hPa | 0 mm | - | 0 W/m² | - |
| 1778151518 | 2.78° C | 73% | 1023.4 hPa | 0 mm | - | 0 W/m² | - |
| 1778151215 | 5° C | 72% | 1023.4 hPa | 0 mm | - | 0 W/m² | - |
| 1778150912 | 5.56° C | 60% | 1023.5 hPa | 0 mm | - | 0 W/m² | - |
| 1778150608 | 3.89° C | 73% | 1023.5 hPa | 0 mm | - | 0 W/m² | - |
| 1778150304 | 2.78° C | 82% | 1023.5 hPa | 0 mm | - | 0 W/m² | - |
| 1778150001 | 3.33° C | 82% | 1023.4 hPa | 0 mm | - | 0 W/m² | - |
| 1778149697 | 2.22° C | 87% | 1023.4 hPa | 0 mm | - | 0 W/m² | - |
| 1778149394 | 1.67° C | 89% | 1023.5 hPa | 0 mm | - | 0 W/m² | - |
| 1778149090 | 1.11° C | 89% | 1023.7 hPa | 0 mm | - | 0 W/m² | - |
| 1778148785 | 1.11° C | 89% | 1023.5 hPa | 0 mm | - | 0 W/m² | - |
| 1778148483 | 1.11° C | 89% | 1023.9 hPa | 0 mm | - | 0 W/m² | - |
| 1778148181 | 1.11° C | 89% | 1023.7 hPa | 0 mm | - | 0 W/m² | - |
| 1778147879 | 1.11° C | 91% | 1023.8 hPa | 0 mm | - | 0 W/m² | - |
| 1778147575 | 0.56° C | 93% | 1023.8 hPa | 0 mm | - | 0 W/m² | - |
| 1778147272 | 0.56° C | 93% | 1024.1 hPa | 0 mm | - | 0 W/m² | - |
| 1778146969 | 0° C | 93% | 1024.1 hPa | 0 mm | - | 0 W/m² | - |
| 1778146666 | 0.56° C | 93% | 1024 hPa | 0 mm | - | 0 W/m² | - |
| 1778146364 | 0.56° C | 93% | 1024.1 hPa | 0 mm | - | 0 W/m² | - |
| 1778146062 | 0° C | 94% | 1023.9 hPa | 0 mm | - | 0 W/m² | - |
* Rain latest hour (hover to see other rain measurements)
** Current wind speed in m/s (hover to see current wind gust speed)